createdAt,value
2018-06-23T00:00:28.831Z,85.61
2018-06-23T00:01:36.901Z,85.71
2018-06-23T00:02:44.960Z,85.61
2018-06-23T00:03:53.027Z,85.90
2018-06-23T00:05:01.097Z,86.09
2018-06-23T00:06:09.152Z,86.28
2018-06-23T00:07:17.194Z,85.80
2018-06-23T00:08:25.283Z,86.09
2018-06-23T00:09:33.340Z,86.18
2018-06-23T00:10:41.417Z,86.38
2018-06-23T00:11:49.487Z,86.57
2018-06-23T00:12:57.516Z,86.66
2018-06-23T00:14:05.615Z,86.94
2018-06-23T00:15:13.690Z,86.76
2018-06-23T00:16:21.718Z,86.80
2018-06-23T00:17:29.791Z,86.52
2018-06-23T00:18:37.849Z,86.80
2018-06-23T00:19:45.925Z,87.19
2018-06-23T00:20:53.990Z,86.99
2018-06-23T00:22:02.048Z,86.71
2018-06-23T00:23:10.111Z,87.09
2018-06-23T00:24:18.186Z,86.80
2018-06-23T00:25:26.243Z,86.61
2018-06-23T00:26:34.298Z,86.52
2018-06-23T00:27:42.360Z,86.80
2018-06-23T00:28:50.418Z,87.09
2018-06-23T00:29:58.495Z,86.90
2018-06-23T00:31:06.548Z,86.80
2018-06-23T00:32:14.611Z,86.90
2018-06-23T00:33:22.697Z,87.09
2018-06-23T00:34:30.761Z,87.19
2018-06-23T00:35:38.808Z,86.71
2018-06-23T00:36:46.907Z,86.61
2018-06-23T00:37:54.947Z,86.80
2018-06-23T00:39:02.998Z,86.47
2018-06-23T00:40:11.075Z,86.67
2018-06-23T00:41:19.136Z,86.76
2018-06-23T00:42:27.168Z,86.57
2018-06-23T00:43:35.255Z,86.29
2018-06-23T00:44:43.337Z,86.47
2018-06-23T00:45:51.377Z,86.95
2018-06-23T00:46:59.429Z,87.05
2018-06-23T00:48:07.492Z,86.47
2018-06-23T00:49:15.570Z,86.76
2018-06-23T00:50:23.612Z,87.34
2018-06-23T00:51:31.685Z,87.14
2018-06-23T00:52:39.757Z,86.95
2018-06-23T00:53:47.811Z,87.81
2018-06-23T00:54:55.861Z,87.24
2018-06-23T00:56:03.934Z,87.24
2018-06-23T00:57:11.976Z,87.43
2018-06-23T00:58:20.051Z,87.10
2018-06-23T00:59:28.117Z,87.19
2018-06-23T01:00:36.173Z,87.67
2018-06-23T01:01:44.236Z,87.38
2018-06-23T01:02:52.305Z,87.48
2018-06-23T01:04:00.374Z,87.86
2018-06-23T01:05:08.433Z,87.76
2018-06-23T01:06:16.489Z,87.29
2018-06-23T01:07:24.552Z,87.67
2018-06-23T01:08:32.621Z,87.67
2018-06-23T01:09:40.690Z,87.48
2018-06-23T01:10:48.746Z,88.05
2018-06-23T01:11:56.792Z,88.05
2018-06-23T01:13:04.867Z,87.67
2018-06-23T01:14:12.941Z,87.67
2018-06-23T01:15:20.983Z,88.15
2018-06-23T01:16:29.092Z,88.15
2018-06-23T01:17:37.098Z,87.67
2018-06-23T01:18:45.168Z,87.76
2018-06-23T01:19:53.236Z,87.48
2018-06-23T01:21:01.312Z,88.15
2018-06-23T01:22:09.372Z,87.86
2018-06-23T01:23:17.424Z,87.57
2018-06-23T01:24:25.489Z,87.86
2018-06-23T01:25:33.548Z,87.43
2018-06-23T01:26:41.608Z,88.10
2018-06-23T01:27:49.692Z,88.10
2018-06-23T01:28:57.727Z,88.57
2018-06-23T01:30:05.819Z,88.67
2018-06-23T01:31:13.841Z,88.29
2018-06-23T01:32:21.923Z,88.39
2018-06-23T01:33:30.003Z,88.86
2018-06-23T01:34:38.057Z,88.39
2018-06-23T01:35:46.120Z,88.39
2018-06-23T01:36:54.191Z,88.48
2018-06-23T01:38:02.242Z,89.05
2018-06-23T01:39:10.309Z,89.24
2018-06-23T01:40:18.359Z,88.76
2018-06-23T01:41:26.432Z,88.67
2018-06-23T01:42:34.470Z,89.05
2018-06-23T01:43:42.547Z,89.05
2018-06-23T01:44:50.596Z,88.76
2018-06-23T01:45:58.663Z,88.43
2018-06-23T01:47:06.716Z,88.62
2018-06-23T01:48:14.799Z,88.39
2018-06-23T01:49:22.857Z,88.53
2018-06-23T01:50:30.913Z,88.71
2018-06-23T01:51:38.984Z,88.71
2018-06-23T01:52:47.008Z,88.62
2018-06-23T01:53:55.107Z,88.43
2018-06-23T01:55:03.166Z,88.71
2018-06-23T01:56:11.221Z,88.62
2018-06-23T01:57:19.301Z,88.62
2018-06-23T01:58:27.335Z,88.62
2018-06-23T01:59:35.398Z,88.81
2018-06-23T02:00:43.461Z,88.71
2018-06-23T02:01:51.530Z,87.95
2018-06-23T02:02:59.602Z,88.15
2018-06-23T02:04:07.639Z,87.76
2018-06-23T02:05:15.722Z,87.76
2018-06-23T02:06:23.771Z,87.57
2018-06-23T02:07:31.842Z,87.48
2018-06-23T02:08:39.909Z,87.67
2018-06-23T02:09:47.965Z,87.67
2018-06-23T02:10:56.016Z,87.67
2018-06-23T02:12:04.086Z,87.67
2018-06-23T02:13:12.154Z,87.38
2018-06-23T02:14:20.212Z,87.95
2018-06-23T02:15:28.283Z,88.05
2018-06-23T02:16:36.369Z,87.67
2018-06-23T02:17:44.402Z,87.67
2018-06-23T02:18:52.469Z,87.76
2018-06-23T02:20:00.508Z,87.76
2018-06-23T02:21:08.585Z,88.24
2018-06-23T02:22:16.628Z,88.15
2018-06-23T02:23:24.702Z,88.15
2018-06-23T02:24:32.755Z,88.15
2018-06-23T02:25:40.815Z,88.15
2018-06-23T02:26:48.903Z,88.10
2018-06-23T02:27:56.915Z,88.10
2018-06-23T02:29:05.017Z,88.57
2018-06-23T02:30:13.080Z,88.34
2018-06-23T02:31:21.144Z,88.76
2018-06-23T02:32:29.204Z,88.53
2018-06-23T02:33:37.244Z,88.20
2018-06-23T02:34:45.315Z,87.86
2018-06-23T02:35:53.374Z,87.86
2018-06-23T02:37:01.444Z,87.76
2018-06-23T02:38:09.505Z,87.86
2018-06-23T02:39:17.550Z,88.43
2018-06-23T02:40:25.617Z,87.38
2018-06-23T02:41:33.700Z,87.95
2018-06-23T02:42:41.758Z,87.48
2018-06-23T02:43:49.831Z,87.95
2018-06-23T02:44:57.877Z,87.29
2018-06-23T02:46:05.961Z,88.43
2018-06-23T02:47:14.010Z,87.48
2018-06-23T02:48:22.074Z,88.34
2018-06-23T02:49:30.150Z,87.57
2018-06-23T02:50:38.197Z,87.86
2018-06-23T02:51:46.259Z,88.05
2018-06-23T02:52:54.321Z,88.24
2018-06-23T02:54:02.385Z,87.95
2018-06-23T02:55:10.439Z,87.95
2018-06-23T02:56:18.496Z,87.57
2018-06-23T02:57:26.563Z,87.48
2018-06-23T02:58:34.642Z,87.76
2018-06-23T02:59:42.693Z,88.43
2018-06-23T03:00:50.755Z,87.76
2018-06-23T03:01:58.822Z,88.24
2018-06-23T03:03:06.872Z,87.67
2018-06-23T03:04:14.945Z,87.95
2018-06-23T03:05:23.003Z,88.34
2018-06-23T03:06:31.054Z,87.76
2018-06-23T03:07:39.128Z,87.76
2018-06-23T03:08:47.172Z,87.38
2018-06-23T03:09:55.252Z,87.76
2018-06-23T03:11:03.308Z,87.62
2018-06-23T03:12:11.376Z,87.76
2018-06-23T03:13:19.475Z,87.67
2018-06-23T03:14:27.462Z,87.72
2018-06-23T03:15:35.556Z,87.72
2018-06-23T03:16:43.618Z,87.62
2018-06-23T03:17:51.692Z,88.20
2018-06-23T03:18:59.741Z,88.29
2018-06-23T03:20:07.796Z,88.57
2018-06-23T03:21:15.862Z,88.76
2018-06-23T03:22:23.928Z,88.48
2018-06-23T03:23:31.990Z,88.67
2018-06-23T03:24:40.059Z,88.57
2018-06-23T03:25:48.125Z,88.29
2018-06-23T03:26:56.174Z,87.91
2018-06-23T03:28:04.233Z,88.57
2018-06-23T03:29:12.298Z,87.91
2018-06-23T03:30:20.366Z,88.10
2018-06-23T03:31:28.461Z,88.10
2018-06-23T03:32:36.496Z,88.01
2018-06-23T03:33:44.562Z,88.29
2018-06-23T03:34:52.605Z,88.48
2018-06-23T03:36:00.681Z,88.39
2018-06-23T03:37:08.739Z,88.48
2018-06-23T03:38:16.782Z,88.48
2018-06-23T03:39:24.847Z,88.48
2018-06-23T03:40:32.914Z,88.29
2018-06-23T03:41:40.988Z,88.48
2018-06-23T03:42:49.057Z,88.95
2018-06-23T03:43:57.079Z,88.29
2018-06-23T03:45:05.164Z,88.29
2018-06-23T03:46:13.232Z,88.39
2018-06-23T03:47:21.307Z,88.86
2018-06-23T03:48:29.351Z,88.29
2018-06-23T03:49:37.395Z,88.76
2018-06-23T03:50:45.487Z,88.48
2018-06-23T03:51:53.543Z,88.20
2018-06-23T03:53:01.616Z,88.67
2018-06-23T03:54:09.660Z,88.39
2018-06-23T03:55:17.706Z,88.86
2018-06-23T03:56:25.815Z,88.57
2018-06-23T03:57:33.864Z,88.67
2018-06-23T03:58:41.925Z,88.67
2018-06-23T03:59:49.970Z,88.67
2018-06-23T04:00:58.052Z,88.86
2018-06-23T04:02:06.100Z,88.57
2018-06-23T04:03:14.164Z,88.48
2018-06-23T04:04:22.231Z,88.39
2018-06-23T04:05:30.299Z,88.57
2018-06-23T04:06:38.355Z,89.14
2018-06-23T04:07:46.420Z,88.95
2018-06-23T04:08:54.478Z,88.57
2018-06-23T04:10:02.549Z,88.67
2018-06-23T04:11:10.606Z,88.76
2018-06-23T04:12:18.652Z,88.67
2018-06-23T04:13:26.707Z,88.57
2018-06-23T04:14:34.774Z,88.76
2018-06-23T04:15:42.842Z,88.67
2018-06-23T04:16:50.953Z,88.76
2018-06-23T04:17:58.978Z,88.48
2018-06-23T04:19:07.012Z,88.29
2018-06-23T04:20:15.670Z,88.48
2018-06-23T04:21:23.164Z,88.48
2018-06-23T04:22:31.219Z,88.48
2018-06-23T04:23:41.593Z,88.71
2018-06-23T04:24:49.173Z,88.86
2018-06-23T04:25:55.394Z,88.62
2018-06-23T04:27:03.759Z,88.20
2018-06-23T04:28:11.780Z,88.20
2018-06-23T04:29:22.927Z,88.57
2018-06-23T04:30:27.911Z,88.62
2018-06-23T04:31:35.961Z,88.34
2018-06-23T04:32:43.926Z,88.90
2018-06-23T04:33:51.848Z,88.71
2018-06-23T04:34:59.912Z,88.62
2018-06-23T04:36:07.972Z,88.71
2018-06-23T04:37:16.024Z,88.71
2018-06-23T04:38:24.085Z,88.43
2018-06-23T04:39:32.153Z,88.43
2018-06-23T04:40:40.224Z,88.05
2018-06-23T04:41:48.268Z,87.67
2018-06-23T04:42:56.336Z,87.57
2018-06-23T04:44:04.406Z,87.38
2018-06-23T04:45:12.457Z,88.19
2018-06-23T04:46:20.521Z,88.19
2018-06-23T04:47:28.594Z,88.28
2018-06-23T04:48:36.635Z,88.28
2018-06-23T04:49:44.735Z,88.09
2018-06-23T04:50:52.783Z,88.00
2018-06-23T04:52:00.868Z,87.62
2018-06-23T04:53:08.901Z,87.81
2018-06-23T04:54:16.946Z,88.00
2018-06-23T04:55:25.037Z,88.28
2018-06-23T04:56:33.089Z,87.52
2018-06-23T04:57:41.159Z,87.62
2018-06-23T04:58:49.325Z,88.00
2018-06-23T04:59:57.245Z,87.81
2018-06-23T05:01:05.347Z,88.00
2018-06-23T05:02:13.399Z,88.19
2018-06-23T05:03:21.462Z,87.90
2018-06-23T05:04:29.534Z,88.19
2018-06-23T05:05:37.588Z,87.90
2018-06-23T05:06:45.655Z,87.95
2018-06-23T05:07:53.717Z,87.66
2018-06-23T05:09:02.005Z,87.95
2018-06-23T05:10:09.841Z,86.90
2018-06-23T05:11:17.883Z,86.94
2018-06-23T05:12:26.028Z,86.66
2018-06-23T05:13:34.050Z,86.38
2018-06-23T05:14:42.326Z,86.57
2018-06-23T05:15:50.154Z,86.38
2018-06-23T05:16:58.215Z,86.09
2018-06-23T05:18:06.274Z,86.38
2018-06-23T05:19:14.338Z,86.28
2018-06-23T05:20:22.404Z,86.28
2018-06-23T05:21:30.469Z,86.38
2018-06-23T05:22:38.525Z,86.47
2018-06-23T05:23:46.603Z,86.47
2018-06-23T05:24:54.668Z,86.47
2018-06-23T05:26:02.744Z,86.28
2018-06-23T05:27:10.791Z,86.18
2018-06-23T05:28:18.845Z,86.22
2018-06-23T05:29:26.905Z,86.32
2018-06-23T05:30:34.970Z,86.70
2018-06-23T05:31:43.040Z,86.32
2018-06-23T05:32:51.104Z,85.85
2018-06-23T05:33:59.183Z,85.75
2018-06-23T05:35:07.213Z,85.66
2018-06-23T05:36:15.308Z,85.66
2018-06-23T05:37:25.380Z,85.66
2018-06-23T05:38:31.431Z,85.66
2018-06-23T05:39:39.489Z,85.75
2018-06-23T05:40:47.533Z,85.28
2018-06-23T05:41:55.621Z,85.37
2018-06-23T05:43:03.688Z,85.47
2018-06-23T05:44:11.958Z,85.08
2018-06-23T05:45:20.007Z,85.37
2018-06-23T05:46:28.046Z,84.46
2018-06-23T05:47:35.942Z,84.56
2018-06-23T05:48:43.998Z,84.46
2018-06-23T05:49:52.078Z,84.65
2018-06-23T05:51:00.125Z,83.51
2018-06-23T05:52:08.186Z,83.41
2018-06-23T05:53:16.261Z,83.51
2018-06-23T05:54:24.308Z,83.13
2018-06-23T05:55:32.370Z,83.13
2018-06-23T05:56:40.437Z,81.74
2018-06-23T05:57:48.520Z,81.84
2018-06-23T05:58:56.575Z,82.60
2018-06-23T06:00:04.639Z,82.60
2018-06-23T06:01:12.706Z,82.60
2018-06-23T06:02:20.784Z,81.93
2018-06-23T06:03:28.837Z,82.89
2018-06-23T06:04:36.884Z,83.07
2018-06-23T06:05:44.971Z,82.31
2018-06-23T06:06:53.407Z,81.84
2018-06-23T06:08:01.093Z,80.79
2018-06-23T06:09:09.154Z,80.69
2018-06-23T06:10:17.197Z,80.64
2018-06-23T06:11:25.281Z,80.73
2018-06-23T06:12:33.372Z,79.40
2018-06-23T06:13:41.403Z,79.02
2018-06-23T06:14:49.485Z,79.40
2018-06-23T06:15:57.507Z,79.40
2018-06-23T06:17:05.615Z,79.59
2018-06-23T06:18:13.681Z,79.49
2018-06-23T06:19:21.736Z,79.40
2018-06-23T06:20:29.798Z,79.78
2018-06-23T06:21:37.865Z,79.02
2018-06-23T06:22:45.928Z,79.78
2018-06-23T06:23:54.071Z,79.21
2018-06-23T06:25:02.088Z,78.54
2018-06-23T06:26:10.718Z,79.44
2018-06-23T06:27:18.192Z,79.68
2018-06-23T06:28:26.264Z,79.49
2018-06-23T06:29:34.432Z,78.10
2018-06-23T06:30:42.650Z,78.86
2018-06-23T06:31:50.446Z,79.44
2018-06-23T06:32:58.560Z,78.49
2018-06-23T06:34:06.576Z,77.91
2018-06-23T06:35:14.638Z,79.06
2018-06-23T06:36:22.708Z,77.91
2018-06-23T06:37:30.780Z,77.62
2018-06-23T06:38:38.845Z,75.53
2018-06-23T06:39:46.889Z,76.57
2018-06-23T06:40:54.967Z,76.86
2018-06-23T06:42:03.051Z,76.86
2018-06-23T06:43:11.104Z,76.29
2018-06-23T06:44:19.167Z,75.09
2018-06-23T06:45:27.341Z,75.18
2018-06-23T06:46:35.286Z,75.47
2018-06-23T06:47:43.349Z,76.42
2018-06-23T06:48:51.415Z,76.71
2018-06-23T06:49:59.495Z,76.52
2018-06-23T06:51:07.539Z,74.52
2018-06-23T06:52:15.620Z,74.04
2018-06-23T06:53:23.717Z,74.42
2018-06-23T06:54:31.765Z,75.57
2018-06-23T06:55:39.811Z,75.28
2018-06-23T06:56:47.879Z,74.32
2018-06-23T06:57:55.949Z,73.41
2018-06-23T06:59:04.017Z,74.55
2018-06-23T07:00:12.077Z,74.65
2018-06-23T07:01:20.154Z,74.93
2018-06-23T07:02:28.207Z,74.17
2018-06-23T07:03:36.294Z,75.83
2018-06-23T07:04:44.352Z,74.69
2018-06-23T07:05:52.403Z,73.00
2018-06-23T07:07:00.501Z,70.56
2018-06-23T07:08:08.547Z,69.82
2018-06-23T07:09:16.620Z,68.77
2018-06-23T07:10:24.685Z,66.61
2018-06-23T07:11:32.749Z,63.60
2018-06-23T07:12:40.809Z,62.30
2018-06-23T07:13:48.883Z,62.20
2018-06-23T07:14:56.926Z,61.08
2018-06-23T07:16:05.937Z,61.59
2018-06-23T07:17:13.101Z,60.66
2018-06-23T07:18:21.165Z,59.64
2018-06-23T07:19:29.250Z,56.85
2018-06-23T07:20:37.285Z,55.91
2018-06-23T07:21:45.375Z,56.23
2018-06-23T07:22:53.453Z,54.69
2018-06-23T07:24:01.650Z,51.93
2018-06-23T07:25:09.599Z,52.92
2018-06-23T07:26:17.663Z,53.47
2018-06-23T07:27:25.741Z,54.47
2018-06-23T07:28:33.823Z,55.34
2018-06-23T07:29:41.898Z,55.51
2018-06-23T07:30:50.009Z,55.57
2018-06-23T07:31:58.054Z,57.01
2018-06-23T07:33:06.125Z,56.82
2018-06-23T07:34:14.264Z,55.55
2018-06-23T07:35:22.292Z,57.18
2018-06-23T07:36:30.365Z,58.11
2018-06-23T07:37:38.426Z,57.24
2018-06-23T07:38:46.496Z,56.54
2018-06-23T07:39:54.569Z,55.26
2018-06-23T07:41:02.634Z,53.39
2018-06-23T07:42:10.698Z,49.99
2018-06-23T07:43:18.776Z,48.13
2018-06-23T07:44:26.873Z,49.67
2018-06-23T07:45:34.947Z,51.86
2018-06-23T07:46:43.127Z,53.46
2018-06-23T07:47:51.092Z,54.42
2018-06-23T07:48:59.811Z,55.93
2018-06-23T07:50:07.221Z,56.60
2018-06-23T07:51:15.290Z,55.52
2018-06-23T07:52:23.420Z,55.80
2018-06-23T07:53:31.470Z,55.80
2018-06-23T07:54:39.523Z,57.21
2018-06-23T07:55:50.649Z,59.33
2018-06-23T07:56:58.286Z,60.64
2018-06-23T07:58:06.418Z,59.97
2018-06-23T07:59:14.426Z,61.79
2018-06-23T08:00:22.499Z,63.03
2018-06-23T08:01:30.637Z,61.69
2018-06-23T08:02:38.642Z,60.64
2018-06-23T08:03:46.715Z,60.83
2018-06-23T08:04:55.014Z,61.21
2018-06-23T08:06:02.856Z,61.79
2018-06-23T08:07:10.928Z,60.83
2018-06-23T08:08:18.981Z,61.21
2018-06-23T08:09:27.050Z,61.02
2018-06-23T08:11:47.492Z,53.54
2018-06-23T08:12:55.519Z,49.74
2018-06-23T08:14:03.598Z,47.58
2018-06-23T08:15:12.076Z,44.52
2018-06-23T08:16:19.741Z,41.94
2018-06-23T08:17:27.795Z,41.09
2018-06-23T08:18:35.894Z,44.51
2018-06-23T08:19:44.405Z,41.05
2018-06-23T08:20:52.404Z,37.30
2018-06-23T08:22:01.016Z,39.04
2018-06-23T08:23:08.712Z,42.43
2018-06-23T08:24:16.280Z,41.35
2018-06-23T08:25:24.372Z,39.22
2018-06-23T08:26:32.475Z,39.39
2018-06-23T08:27:40.511Z,41.13
2018-06-23T08:28:48.614Z,41.57
2018-06-23T08:29:56.651Z,44.66
2018-06-23T08:31:04.725Z,44.45
2018-06-23T08:32:12.799Z,44.23
2018-06-23T08:33:20.885Z,44.40
2018-06-23T08:34:28.963Z,44.40
2018-06-23T08:35:37.025Z,46.98
2018-06-23T08:36:45.113Z,48.97
2018-06-23T08:37:53.308Z,49.43
2018-06-23T08:39:01.275Z,48.66
2018-06-23T08:40:09.348Z,49.89
2018-06-23T08:41:17.383Z,51.14
2018-06-23T08:42:25.473Z,50.37
2018-06-23T08:43:33.557Z,48.35
2018-06-23T08:44:41.634Z,47.10
2018-06-23T08:45:49.694Z,48.35
2018-06-23T08:46:57.770Z,47.41
2018-06-23T08:48:05.835Z,46.36
2018-06-23T08:49:13.980Z,46.74
2018-06-23T08:50:21.997Z,49.22
2018-06-23T08:51:30.074Z,49.31
2018-06-23T08:52:38.153Z,48.38
2018-06-23T08:53:46.230Z,48.08
2018-06-23T08:54:54.294Z,46.62
2018-06-23T08:56:02.381Z,47.46
2018-06-23T08:57:10.450Z,50.25
2018-06-23T08:58:18.528Z,48.52
2018-06-23T08:59:26.600Z,49.51
2018-06-23T09:00:34.660Z,46.77
2018-06-23T09:01:42.783Z,46.01
2018-06-23T09:02:50.901Z,45.84
2018-06-23T09:03:58.896Z,44.32
2018-06-23T09:05:06.949Z,42.03
2018-06-23T09:06:15.051Z,42.63
2018-06-23T09:07:23.113Z,41.38
2018-06-23T09:08:33.225Z,41.78
2018-06-23T09:09:39.281Z,43.14
2018-06-23T09:10:47.327Z,42.00
2018-06-23T09:11:55.424Z,36.40
2018-06-23T09:13:03.509Z,35.36
2018-06-23T09:14:11.581Z,37.37
2018-06-23T09:15:19.718Z,38.41
2018-06-23T09:16:27.732Z,42.85
2018-06-23T09:17:35.838Z,43.02
2018-06-23T09:18:43.933Z,40.92
2018-06-23T09:19:51.992Z,41.69
2018-06-23T09:21:00.066Z,42.85
2018-06-23T09:22:08.145Z,42.68
2018-06-23T09:23:16.229Z,39.97
2018-06-23T09:24:24.301Z,41.83
2018-06-23T09:25:32.449Z,37.60
2018-06-23T09:26:40.462Z,43.88
2018-06-23T09:27:48.566Z,42.70
2018-06-23T09:28:56.626Z,40.19
2018-06-23T09:30:04.710Z,39.69
2018-06-23T09:31:12.800Z,43.33
2018-06-23T09:32:20.884Z,41.60
2018-06-23T09:33:28.959Z,41.50
2018-06-23T09:34:37.018Z,41.60
2018-06-23T09:35:45.139Z,41.11
2018-06-23T09:36:53.203Z,41.69
2018-06-23T09:38:01.269Z,40.97
2018-06-23T09:39:09.352Z,38.18
2018-06-23T09:40:17.416Z,42.79
2018-06-23T09:41:25.504Z,45.48
2018-06-23T09:42:33.585Z,43.55
2018-06-23T09:43:41.662Z,40.47
2018-06-23T09:44:49.730Z,41.34
2018-06-23T09:45:57.892Z,42.79
2018-06-23T09:47:05.895Z,44.31
2018-06-23T09:48:13.962Z,44.31
2018-06-23T09:49:22.037Z,43.92
2018-06-23T09:50:30.122Z,45.44
2018-06-23T09:51:38.211Z,44.38
2018-06-23T09:52:46.274Z,41.88
2018-06-23T09:53:54.364Z,42.96
2018-06-23T09:55:02.427Z,45.44
2018-06-23T09:56:10.507Z,46.01
2018-06-23T09:57:18.585Z,45.15
2018-06-23T09:59:40.579Z,47.41
2018-06-23T10:00:48.644Z,47.03
2018-06-23T10:01:56.750Z,47.22
2018-06-23T10:03:04.851Z,49.15
2018-06-23T10:04:12.867Z,47.13
2018-06-23T10:05:20.936Z,49.36
2018-06-23T10:06:29.019Z,49.53
2018-06-23T10:07:37.074Z,46.93
2018-06-23T10:08:45.226Z,45.29
2018-06-23T10:09:53.231Z,47.22
2018-06-23T10:11:01.302Z,48.11
2018-06-23T10:12:09.379Z,46.95
2018-06-23T10:13:17.439Z,47.82
2018-06-23T10:14:25.529Z,45.73
2018-06-23T10:15:33.595Z,44.28
2018-06-23T10:16:41.682Z,41.20
2018-06-23T10:17:49.742Z,41.20
2018-06-23T10:18:57.807Z,41.97
2018-06-23T10:20:05.885Z,41.68
2018-06-23T10:21:13.963Z,47.56
2018-06-23T10:22:22.029Z,45.92
2018-06-23T10:23:30.103Z,44.38
2018-06-23T10:24:38.259Z,48.40
2018-06-23T10:25:46.242Z,46.28
2018-06-23T10:26:54.326Z,46.78
2018-06-23T10:28:02.406Z,47.27
2018-06-23T10:29:10.562Z,45.44
2018-06-23T10:30:18.532Z,47.92
2018-06-23T10:31:26.627Z,48.49
2018-06-23T10:32:34.688Z,49.36
2018-06-23T10:33:42.755Z,48.49
2018-06-23T10:34:50.833Z,46.57
2018-06-23T10:35:58.893Z,45.32
2018-06-23T10:37:06.976Z,45.13
2018-06-23T10:38:15.109Z,49.33
2018-06-23T10:39:23.154Z,46.26
2018-06-23T10:40:31.198Z,49.33
2018-06-23T10:41:39.269Z,49.43
2018-06-23T10:42:47.318Z,48.47
2018-06-23T10:43:55.396Z,50.30
2018-06-23T10:45:04.172Z,49.63
2018-06-23T10:46:11.546Z,48.08
2018-06-23T10:47:19.614Z,49.12
2018-06-23T10:48:27.681Z,49.82
2018-06-23T10:49:35.799Z,49.43
2018-06-23T10:50:43.842Z,51.04
2018-06-23T10:51:51.892Z,49.22
2018-06-23T10:52:59.980Z,48.74
2018-06-23T10:54:08.049Z,49.22
2018-06-23T10:55:16.108Z,48.54
2018-06-23T10:56:24.178Z,49.60
2018-06-23T10:57:32.255Z,48.38
2018-06-23T10:58:40.329Z,49.63
2018-06-23T10:59:48.409Z,48.40
2018-06-23T11:00:56.481Z,48.30
2018-06-23T11:02:04.547Z,49.48
2018-06-23T11:03:12.615Z,49.48
2018-06-23T11:04:20.697Z,46.14
2018-06-23T11:05:28.777Z,43.54
2018-06-23T11:06:36.814Z,45.10
2018-06-23T11:07:44.892Z,45.77
2018-06-23T11:08:52.959Z,45.39
2018-06-23T11:10:01.050Z,43.38
2018-06-23T11:11:09.114Z,44.15
2018-06-23T11:12:17.148Z,42.42
2018-06-23T11:13:25.254Z,46.37
2018-06-23T11:14:33.330Z,46.28
2018-06-23T11:15:41.406Z,41.55
2018-06-23T11:16:49.493Z,41.27
2018-06-23T11:17:57.527Z,41.55
2018-06-23T11:19:05.612Z,39.70
2018-06-23T11:20:13.688Z,42.11
2018-06-23T11:21:21.759Z,45.56
2018-06-23T11:22:29.828Z,43.37
2018-06-23T11:23:37.897Z,44.13
2018-06-23T11:24:45.976Z,42.79
2018-06-23T11:25:54.047Z,41.72
2018-06-23T11:27:02.119Z,41.65
2018-06-23T11:28:10.189Z,39.84
2018-06-23T11:29:18.267Z,41.09
2018-06-23T11:30:26.330Z,44.95
2018-06-23T11:31:34.399Z,41.75
2018-06-23T11:32:42.482Z,40.78
2018-06-23T11:33:50.557Z,41.55
2018-06-23T11:34:58.629Z,39.99
2018-06-23T11:36:06.687Z,42.88
2018-06-23T11:37:14.791Z,45.00
2018-06-23T11:38:22.852Z,46.45
2018-06-23T11:39:30.939Z,43.92
2018-06-23T11:40:38.992Z,47.49
2018-06-23T11:41:47.024Z,46.81
2018-06-23T11:42:55.132Z,46.23
2018-06-23T11:44:03.207Z,47.17
2018-06-23T11:45:11.279Z,47.49
2018-06-23T11:46:19.349Z,46.91
2018-06-23T11:47:27.397Z,45.17
2018-06-23T11:48:35.496Z,47.77
2018-06-23T11:49:43.561Z,44.32
2018-06-23T11:50:51.663Z,46.35
2018-06-23T11:52:00.780Z,45.00
2018-06-23T11:53:07.806Z,45.51
2018-06-23T11:54:15.866Z,45.24
2018-06-23T11:55:23.915Z,45.34
2018-06-23T11:56:32.000Z,45.36
2018-06-23T11:57:40.069Z,44.49
2018-06-23T11:58:48.145Z,42.97
2018-06-23T11:59:56.228Z,44.51
2018-06-23T12:01:04.277Z,41.81
2018-06-23T12:02:12.355Z,41.52
2018-06-23T12:03:20.422Z,39.66
2018-06-23T12:04:28.509Z,40.03
2018-06-23T12:05:36.604Z,42.54
2018-06-23T12:06:44.684Z,42.63
2018-06-23T12:07:52.709Z,43.00
2018-06-23T12:09:00.791Z,43.79
2018-06-23T12:10:08.866Z,45.92
2018-06-23T12:11:16.914Z,42.66
2018-06-23T12:12:25.008Z,40.92
2018-06-23T12:13:33.081Z,39.76
2018-06-23T12:14:41.160Z,43.74
2018-06-23T12:15:49.223Z,39.66
2018-06-23T12:16:57.271Z,40.34
2018-06-23T12:18:05.373Z,41.86
2018-06-23T12:19:13.468Z,41.86
2018-06-23T12:20:21.520Z,41.38
2018-06-23T12:21:29.596Z,44.27
2018-06-23T12:22:37.643Z,42.32
2018-06-23T12:23:45.735Z,41.63
2018-06-23T12:24:53.809Z,46.35
2018-06-23T12:26:01.891Z,45.48
2018-06-23T12:27:09.966Z,43.48
2018-06-23T12:28:18.040Z,45.70
2018-06-23T12:29:26.098Z,45.12
2018-06-23T12:30:34.217Z,41.65
2018-06-23T12:31:42.243Z,44.76
2018-06-23T12:32:50.322Z,44.46
2018-06-23T12:33:58.385Z,44.45
2018-06-23T12:35:06.478Z,44.25
2018-06-23T12:36:14.555Z,44.06
2018-06-23T12:37:22.645Z,44.64
2018-06-23T12:38:30.695Z,46.25
2018-06-23T12:39:38.757Z,46.35
2018-06-23T12:40:46.800Z,44.81
2018-06-23T12:41:54.904Z,46.45
2018-06-23T12:43:02.961Z,46.06
2018-06-23T12:44:11.043Z,44.42
2018-06-23T12:45:19.117Z,44.04
2018-06-23T12:46:27.168Z,45.51
2018-06-23T12:47:35.259Z,45.04
2018-06-23T12:48:43.332Z,43.02
2018-06-23T12:49:51.412Z,42.93
2018-06-23T12:50:59.472Z,41.02
2018-06-23T12:52:07.517Z,44.29
2018-06-23T12:53:15.635Z,44.51
2018-06-23T12:54:23.692Z,42.00
2018-06-23T12:55:31.762Z,41.02
2018-06-23T12:56:39.834Z,42.94
2018-06-23T12:57:47.919Z,41.30
2018-06-23T12:58:55.988Z,42.35
2018-06-23T13:00:04.060Z,41.96
2018-06-23T13:01:12.138Z,42.63
2018-06-23T13:02:20.202Z,41.77
2018-06-23T13:03:28.275Z,44.18
2018-06-23T13:04:36.345Z,40.12
2018-06-23T13:05:44.404Z,39.72
2018-06-23T13:06:52.490Z,41.72
2018-06-23T13:08:00.556Z,45.75
2018-06-23T13:09:08.627Z,44.38
2018-06-23T13:10:16.805Z,45.83
2018-06-23T13:11:24.783Z,44.57
2018-06-23T13:12:32.858Z,46.01
2018-06-23T13:13:40.918Z,46.01
2018-06-23T13:14:48.996Z,46.31
2018-06-23T13:15:57.042Z,44.19
2018-06-23T13:17:05.138Z,43.44
2018-06-23T13:18:13.209Z,42.67
2018-06-23T13:19:24.425Z,41.80
2018-06-23T13:20:32.378Z,45.75
2018-06-23T13:21:40.443Z,42.86
2018-06-23T13:22:48.507Z,45.39
2018-06-23T13:23:56.597Z,43.55
2018-06-23T13:25:04.661Z,43.55
2018-06-23T13:26:12.738Z,46.76
2018-06-23T13:27:20.809Z,43.58
2018-06-23T13:28:28.870Z,42.90
2018-06-23T13:29:36.917Z,41.19
2018-06-23T13:30:45.025Z,41.48
2018-06-23T13:31:53.094Z,43.02
2018-06-23T13:33:01.167Z,39.74
2018-06-23T13:34:09.228Z,39.54
2018-06-23T13:35:17.292Z,40.70
2018-06-23T13:36:25.381Z,42.25
2018-06-23T13:37:33.453Z,41.48
2018-06-23T13:38:41.528Z,41.48
2018-06-23T13:39:49.593Z,38.58
2018-06-23T13:40:57.648Z,38.31
2018-06-23T13:42:05.737Z,42.66
2018-06-23T13:43:13.808Z,38.51
2018-06-23T13:44:21.890Z,41.02
2018-06-23T13:45:29.941Z,42.75
2018-06-23T13:46:38.028Z,37.35
2018-06-23T13:47:46.103Z,35.90
2018-06-23T13:48:54.169Z,39.66
2018-06-23T13:50:02.258Z,39.57
2018-06-23T13:51:10.324Z,37.83
2018-06-23T13:52:18.425Z,37.35
2018-06-23T13:53:26.455Z,37.23
2018-06-23T13:54:34.529Z,38.46
2018-06-23T13:55:42.621Z,42.30
2018-06-23T13:56:50.675Z,43.55
2018-06-23T13:57:58.756Z,45.97
2018-06-23T13:59:06.815Z,42.97
2018-06-23T14:00:14.902Z,41.53
2018-06-23T14:01:22.962Z,40.74
2018-06-23T14:02:31.045Z,40.64
2018-06-23T14:03:39.107Z,42.86
2018-06-23T14:04:47.158Z,44.48
2018-06-23T14:05:55.242Z,45.34
2018-06-23T14:07:03.327Z,46.88
2018-06-23T14:09:24.924Z,41.59
2018-06-23T14:10:32.999Z,41.30
2018-06-23T14:11:41.078Z,42.86
2018-06-23T14:12:49.137Z,42.84
2018-06-23T14:13:57.172Z,44.76
2018-06-23T14:15:05.281Z,45.34
2018-06-23T14:16:13.350Z,46.88
2018-06-23T14:17:21.419Z,45.15
2018-06-23T14:18:29.489Z,42.84
2018-06-23T14:19:37.545Z,40.24
2018-06-23T14:20:45.644Z,41.13
2018-06-23T14:21:53.705Z,42.47
2018-06-23T14:23:01.775Z,44.31
2018-06-23T14:24:09.839Z,43.05
2018-06-23T14:25:17.911Z,44.49
2018-06-23T14:26:25.980Z,43.63
2018-06-23T14:27:34.053Z,43.55
2018-06-23T14:28:42.116Z,38.35
2018-06-23T14:29:50.192Z,39.12
2018-06-23T14:30:58.267Z,39.41
2018-06-23T14:32:06.756Z,39.31
2018-06-23T14:33:14.418Z,40.66
2018-06-23T14:34:22.483Z,40.76
2018-06-23T14:35:30.572Z,41.53
2018-06-23T14:36:38.614Z,42.79
2018-06-23T14:37:46.697Z,42.88
2018-06-23T14:38:54.766Z,44.13
2018-06-23T14:40:02.833Z,44.13